sensor_id;sensor_type;location;lat;lon;timestamp;pressure;altitude;pressure_sealevel;temperature;humidity
47374;BME280;33123;50.118;10.272;2023-03-03T00:00:41;97910.91;;;4.29;55.11
47374;BME280;33123;50.118;10.272;2023-03-03T00:03:09;97903.88;;;4.22;55.02
47374;BME280;33123;50.118;10.272;2023-03-03T00:05:38;97915.91;;;4.30;55.02
47374;BME280;33123;50.118;10.272;2023-03-03T00:08:05;97920.13;;;4.24;55.03
47374;BME280;33123;50.118;10.272;2023-03-03T00:10:32;97920.72;;;4.27;54.83
47374;BME280;33123;50.118;10.272;2023-03-03T00:12:59;97919.53;;;4.22;55.04
47374;BME280;33123;50.118;10.272;2023-03-03T00:15:26;97916.50;;;4.12;55.37
47374;BME280;33123;50.118;10.272;2023-03-03T00:17:53;97886.56;;;3.82;55.36
47374;BME280;33123;50.118;10.272;2023-03-03T00:20:29;97927.91;;;4.05;55.76
47374;BME280;33123;50.118;10.272;2023-03-03T00:23:07;97925.50;;;4.03;56.19
47374;BME280;33123;50.118;10.272;2023-03-03T00:25:42;97925.31;;;3.98;56.41
47374;BME280;33123;50.118;10.272;2023-03-03T00:28:21;97889.94;;;3.69;56.80
47374;BME280;33123;50.118;10.272;2023-03-03T00:30:48;97935.94;;;3.96;56.57
47374;BME280;33123;50.118;10.272;2023-03-03T00:33:24;97944.34;;;3.92;56.91
47374;BME280;33123;50.118;10.272;2023-03-03T00:35:53;97935.72;;;3.85;57.17
47374;BME280;33123;50.118;10.272;2023-03-03T00:38:22;97937.91;;;3.88;57.18
47374;BME280;33123;50.118;10.272;2023-03-03T00:40:49;97931.50;;;3.90;57.08
47374;BME280;33123;50.118;10.272;2023-03-03T00:43:20;97936.09;;;3.88;57.37
47374;BME280;33123;50.118;10.272;2023-03-03T00:45:48;97938.72;;;3.88;57.45
47374;BME280;33123;50.118;10.272;2023-03-03T00:48:28;97929.91;;;3.89;57.37
47374;BME280;33123;50.118;10.272;2023-03-03T00:50:56;97941.94;;;3.84;57.51
47374;BME280;33123;50.118;10.272;2023-03-03T00:53:25;97941.13;;;3.83;58.07
47374;BME280;33123;50.118;10.272;2023-03-03T00:55:52;97937.91;;;3.81;58.25
47374;BME280;33123;50.118;10.272;2023-03-03T00:58:20;97937.88;;;3.75;58.35
47374;BME280;33123;50.118;10.272;2023-03-03T01:00:48;97928.47;;;3.74;58.63
47374;BME280;33123;50.118;10.272;2023-03-03T01:03:17;97923.25;;;3.67;59.16
47374;BME280;33123;50.118;10.272;2023-03-03T01:05:44;97928.06;;;3.77;58.73
47374;BME280;33123;50.118;10.272;2023-03-03T01:08:10;97930.66;;;3.70;59.29
47374;BME280;33123;50.118;10.272;2023-03-03T01:10:43;97922.81;;;3.70;59.39
47374;BME280;33123;50.118;10.272;2023-03-03T01:13:10;97915.63;;;3.72;59.46
47374;BME280;33123;50.118;10.272;2023-03-03T01:15:38;97912.19;;;3.71;59.60
47374;BME280;33123;50.118;10.272;2023-03-03T01:18:05;97914.63;;;3.66;59.54
47374;BME280;33123;50.118;10.272;2023-03-03T01:20:32;97915.78;;;3.64;59.72
47374;BME280;33123;50.118;10.272;2023-03-03T01:22:58;97913.97;;;3.58;60.53
47374;BME280;33123;50.118;10.272;2023-03-03T01:25:26;97912.38;;;3.63;60.12
47374;BME280;33123;50.118;10.272;2023-03-03T01:27:54;97907.34;;;3.55;60.47
47374;BME280;33123;50.118;10.272;2023-03-03T01:30:21;97899.72;;;3.54;60.62
47374;BME280;33123;50.118;10.272;2023-03-03T01:32:48;97913.56;;;3.61;60.21
47374;BME280;33123;50.118;10.272;2023-03-03T01:35:15;97907.34;;;3.55;60.36
47374;BME280;33123;50.118;10.272;2023-03-03T01:37:42;97914.56;;;3.60;60.41
47374;BME280;33123;50.118;10.272;2023-03-03T01:40:15;97911.97;;;3.60;60.11
47374;BME280;33123;50.118;10.272;2023-03-03T01:42:42;97910.56;;;3.57;60.04
47374;BME280;33123;50.118;10.272;2023-03-03T01:45:14;97894.50;;;3.47;59.93
47374;BME280;33123;50.118;10.272;2023-03-03T01:47:46;97898.31;;;3.51;60.35
47374;BME280;33123;50.118;10.272;2023-03-03T01:50:18;97900.13;;;3.51;60.69
47374;BME280;33123;50.118;10.272;2023-03-03T02:09:44;97900.03;;;3.31;60.97
47374;BME280;33123;50.118;10.272;2023-03-03T02:12:16;97895.00;;;3.23;61.51
47374;BME280;33123;50.118;10.272;2023-03-03T02:14:43;97896.41;;;3.25;61.14
47374;BME280;33123;50.118;10.272;2023-03-03T02:17:10;97896.38;;;3.18;61.19
47374;BME280;33123;50.118;10.272;2023-03-03T02:19:43;97902.41;;;3.19;61.57
47374;BME280;33123;50.118;10.272;2023-03-03T02:22:13;97901.97;;;3.15;61.83
47374;BME280;33123;50.118;10.272;2023-03-03T02:24:47;97902.75;;;3.09;62.15
47374;BME280;33123;50.118;10.272;2023-03-03T02:27:16;97902.16;;;3.07;62.15
47374;BME280;33123;50.118;10.272;2023-03-03T02:29:44;97896.31;;;3.05;62.33
47374;BME280;33123;50.118;10.272;2023-03-03T02:32:11;97895.09;;;3.01;62.81
47374;BME280;33123;50.118;10.272;2023-03-03T02:34:48;97901.16;;;3.08;62.27
47374;BME280;33123;50.118;10.272;2023-03-03T02:37:16;97902.34;;;3.06;62.38
47374;BME280;33123;50.118;10.272;2023-03-03T02:39:43;97905.13;;;3.04;62.37
47374;BME280;33123;50.118;10.272;2023-03-03T02:42:14;97872.13;;;2.77;62.50
47374;BME280;33123;50.118;10.272;2023-03-03T02:44:44;97905.09;;;2.98;63.03
47374;BME280;33123;50.118;10.272;2023-03-03T02:47:11;97895.88;;;2.95;63.26
47374;BME280;33123;50.118;10.272;2023-03-03T02:49:38;97901.09;;;2.95;62.97
47374;BME280;33123;50.118;10.272;2023-03-03T02:52:07;97897.47;;;2.96;63.12
47374;BME280;33123;50.118;10.272;2023-03-03T02:54:34;97872.72;;;2.72;62.94
47374;BME280;33123;50.118;10.272;2023-03-03T02:57:02;97907.13;;;3.02;63.22
47374;BME280;33123;50.118;10.272;2023-03-03T02:59:29;97907.91;;;2.96;63.27
47374;BME280;33123;50.118;10.272;2023-03-03T03:01:57;97913.34;;;3.01;63.50
47374;BME280;33123;50.118;10.272;2023-03-03T03:04:24;97916.34;;;3.05;63.20
47374;BME280;33123;50.118;10.272;2023-03-03T03:06:52;97913.72;;;2.98;63.60
47374;BME280;33123;50.118;10.272;2023-03-03T03:09:21;97913.50;;;3.00;63.14
47374;BME280;33123;50.118;10.272;2023-03-03T03:11:47;97916.75;;;3.02;63.05
47374;BME280;33123;50.118;10.272;2023-03-03T03:14:14;97908.09;;;2.95;63.45
47374;BME280;33123;50.118;10.272;2023-03-03T03:16:41;97907.69;;;2.98;63.23
47374;BME280;33123;50.118;10.272;2023-03-03T03:19:09;97891.03;;;2.92;63.46
47374;BME280;33123;50.118;10.272;2023-03-03T03:21:35;97895.47;;;2.98;63.08
47374;BME280;33123;50.118;10.272;2023-03-03T03:24:02;97900.69;;;2.98;62.70
47374;BME280;33123;50.118;10.272;2023-03-03T03:26:29;97907.09;;;2.96;62.55
47374;BME280;33123;50.118;10.272;2023-03-03T03:28:56;97898.50;;;2.95;62.89
47374;BME280;33123;50.118;10.272;2023-03-03T03:31:24;97909.66;;;2.89;63.33
47374;BME280;33123;50.118;10.272;2023-03-03T03:33:51;97904.47;;;2.89;63.12
47374;BME280;33123;50.118;10.272;2023-03-03T03:36:19;97912.03;;;2.84;63.42
47374;BME280;33123;50.118;10.272;2023-03-03T03:38:45;97918.66;;;2.86;63.12
47374;BME280;33123;50.118;10.272;2023-03-03T03:41:12;97912.28;;;2.89;63.35
47374;BME280;33123;50.118;10.272;2023-03-03T03:43:39;97917.84;;;2.86;63.03
47374;BME280;33123;50.118;10.272;2023-03-03T03:46:06;97924.66;;;2.87;63.74
47374;BME280;33123;50.118;10.272;2023-03-03T03:48:32;97925.44;;;2.87;63.51
47374;BME280;33123;50.118;10.272;2023-03-03T03:50:59;97915.44;;;2.84;63.78
47374;BME280;33123;50.118;10.272;2023-03-03T03:53:27;97919.84;;;2.84;64.05
47374;BME280;33123;50.118;10.272;2023-03-03T03:55:55;97923.41;;;2.83;64.18
47374;BME280;33123;50.118;10.272;2023-03-03T03:58:21;97917.59;;;2.81;63.75
47374;BME280;33123;50.118;10.272;2023-03-03T04:00:48;97911.00;;;2.78;64.20
47374;BME280;33123;50.118;10.272;2023-03-03T04:03:15;97925.41;;;2.81;64.29
47374;BME280;33123;50.118;10.272;2023-03-03T04:05:42;97919.03;;;2.83;64.48
47374;BME280;33123;50.118;10.272;2023-03-03T04:08:08;97926.66;;;2.85;64.17
47374;BME280;33123;50.118;10.272;2023-03-03T04:10:36;97923.41;;;2.83;63.69
47374;BME280;33123;50.118;10.272;2023-03-03T04:13:03;97927.41;;;2.79;64.13
47374;BME280;33123;50.118;10.272;2023-03-03T04:15:30;97936.59;;;2.75;64.13
47374;BME280;33123;50.118;10.272;2023-03-03T04:18:05;97935.34;;;2.71;64.44
47374;BME280;33123;50.118;10.272;2023-03-03T04:20:32;97940.19;;;2.74;64.21
47374;BME280;33123;50.118;10.272;2023-03-03T04:22:59;97933.81;;;2.27;65.12
47374;BME280;33123;50.118;10.272;2023-03-03T04:25:25;97938.22;;;2.54;65.07
47374;BME280;33123;50.118;10.272;2023-03-03T04:27:54;97936.50;;;2.61;64.71
47374;BME280;33123;50.118;10.272;2023-03-03T04:30:20;97935.13;;;2.65;64.50
47374;BME280;33123;50.118;10.272;2023-03-03T04:32:47;97930.31;;;2.62;64.73
47374;BME280;33123;50.118;10.272;2023-03-03T04:35:14;97925.91;;;2.63;64.50
47374;BME280;33123;50.118;10.272;2023-03-03T04:37:41;97935.88;;;2.59;64.88
47374;BME280;33123;50.118;10.272;2023-03-03T04:40:08;97938.13;;;2.62;64.79
47374;BME280;33123;50.118;10.272;2023-03-03T04:42:35;97933.28;;;2.59;64.93
47374;BME280;33123;50.118;10.272;2023-03-03T04:45:05;97935.88;;;2.59;64.38
47374;BME280;33123;50.118;10.272;2023-03-03T04:50:44;97938.00;;;2.49;64.90
47374;BME280;33123;50.118;10.272;2023-03-03T04:53:11;97938.00;;;2.49;65.09
47374;BME280;33123;50.118;10.272;2023-03-03T04:55:38;97878.91;;;2.15;65.12
47374;BME280;33123;50.118;10.272;2023-03-03T04:58:04;97930.16;;;2.43;65.69
47374;BME280;33123;50.118;10.272;2023-03-03T05:00:33;97933.97;;;2.47;65.58
47374;BME280;33123;50.118;10.272;2023-03-03T05:02:59;97931.75;;;2.44;65.40
47374;BME280;33123;50.118;10.272;2023-03-03T05:05:26;97939.19;;;2.47;65.74
47374;BME280;33123;50.118;10.272;2023-03-03T05:07:52;97938.38;;;2.46;66.07
47374;BME280;33123;50.118;10.272;2023-03-03T05:10:19;97944.38;;;2.47;65.60
47374;BME280;33123;50.118;10.272;2023-03-03T05:12:46;97937.59;;;2.46;65.31
47374;BME280;33123;50.118;10.272;2023-03-03T05:15:13;97948.41;;;2.49;65.81
47374;BME280;33123;50.118;10.272;2023-03-03T05:17:41;97939.19;;;2.47;65.66
47374;BME280;33123;50.118;10.272;2023-03-03T05:20:09;97944.84;;;2.50;65.63
47374;BME280;33123;50.118;10.272;2023-03-03T05:22:36;97939.63;;;2.50;65.92
47374;BME280;33123;50.118;10.272;2023-03-03T05:25:03;97935.38;;;2.49;65.64
47374;BME280;33123;50.118;10.272;2023-03-03T05:27:30;97939.63;;;2.50;65.49
47374;BME280;33123;50.118;10.272;2023-03-03T05:29:57;97942.94;;;2.44;65.04
47374;BME280;33123;50.118;10.272;2023-03-03T05:32:23;97940.34;;;2.44;65.34
47374;BME280;33123;50.118;10.272;2023-03-03T05:34:51;97938.75;;;2.43;65.44
47374;BME280;33123;50.118;10.272;2023-03-03T05:37:18;97938.94;;;2.42;65.64
47374;BME280;33123;50.118;10.272;2023-03-03T05:39:44;97934.53;;;2.42;65.05
47374;BME280;33123;50.118;10.272;2023-03-03T05:42:12;97943.16;;;2.43;64.88
47374;BME280;33123;50.118;10.272;2023-03-03T05:44:38;97940.94;;;2.40;64.78
47374;BME280;33123;50.118;10.272;2023-03-03T05:47:05;97955.09;;;2.37;65.53
47374;BME280;33123;50.118;10.272;2023-03-03T05:49:32;97937.72;;;2.16;65.57
47374;BME280;33123;50.118;10.272;2023-03-03T05:52:00;97955.84;;;2.31;65.43
47374;BME280;33123;50.118;10.272;2023-03-03T05:54:27;97964.66;;;2.30;65.76
47374;BME280;33123;50.118;10.272;2023-03-03T05:56:54;97963.22;;;2.27;66.04
47374;BME280;33123;50.118;10.272;2023-03-03T05:59:21;97963.16;;;2.21;66.20
47374;BME280;33123;50.118;10.272;2023-03-03T06:01:48;97969.34;;;2.20;66.14
47374;BME280;33123;50.118;10.272;2023-03-03T06:04:15;97965.16;;;2.19;65.92
47374;BME280;33123;50.118;10.272;2023-03-03T06:06:41;97978.50;;;2.16;66.22
47374;BME280;33123;50.118;10.272;2023-03-03T06:09:09;97975.50;;;2.12;65.86
47374;BME280;33123;50.118;10.272;2023-03-03T06:11:36;97970.28;;;2.12;65.78
47374;BME280;33123;50.118;10.272;2023-03-03T06:14:04;97971.84;;;2.06;66.33
47374;BME280;33123;50.118;10.272;2023-03-03T06:16:30;97977.66;;;2.08;66.22
47374;BME280;33123;50.118;10.272;2023-03-03T06:18:57;97980.06;;;2.10;66.76
47374;BME280;33123;50.118;10.272;2023-03-03T06:21:24;97977.44;;;2.10;66.28
47374;BME280;33123;50.118;10.272;2023-03-03T06:23:50;97976.41;;;2.04;66.96
47374;BME280;33123;50.118;10.272;2023-03-03T06:26:18;97994.44;;;2.06;66.41
47374;BME280;33123;50.118;10.272;2023-03-03T06:28:45;97990.66;;;2.08;66.47
47374;BME280;33123;50.118;10.272;2023-03-03T06:31:12;97995.66;;;2.10;66.33
47374;BME280;33123;50.118;10.272;2023-03-03T06:33:38;97996.78;;;2.01;66.80
47374;BME280;33123;50.118;10.272;2023-03-03T06:36:07;98001.31;;;2.14;66.85
47374;BME280;33123;50.118;10.272;2023-03-03T06:38:35;98002.09;;;2.14;65.95
47374;BME280;33123;50.118;10.272;2023-03-03T06:41:02;98011.25;;;2.10;66.30
47374;BME280;33123;50.118;10.272;2023-03-03T06:43:33;98024.09;;;2.33;66.71
47374;BME280;33123;50.118;10.272;2023-03-03T06:45:59;98025.78;;;2.62;65.90
47374;BME280;33123;50.118;10.272;2023-03-03T06:48:26;97973.75;;;2.62;65.19
47374;BME280;33123;50.118;10.272;2023-03-03T06:50:53;98036.50;;;3.30;63.58
47374;BME280;33123;50.118;10.272;2023-03-03T06:53:19;98026.50;;;3.75;62.51
47374;BME280;33123;50.118;10.272;2023-03-03T06:55:46;98037.66;;;4.03;61.36
47374;BME280;33123;50.118;10.272;2023-03-03T06:58:14;98038.19;;;4.46;59.69
47374;BME280;33123;50.118;10.272;2023-03-03T07:00:45;98036.41;;;4.67;58.51
47374;BME280;33123;50.118;10.272;2023-03-03T07:03:17;98036.00;;;4.90;57.99
47374;BME280;33123;50.118;10.272;2023-03-03T07:05:44;97984.59;;;4.84;56.91
47374;BME280;33123;50.118;10.272;2023-03-03T07:08:13;98041.38;;;5.48;55.98
47374;BME280;33123;50.118;10.272;2023-03-03T07:14:21;98054.28;;;6.07;55.27
47374;BME280;33123;50.118;10.272;2023-03-03T07:16:55;98066.56;;;6.52;54.34
47374;BME280;33123;50.118;10.272;2023-03-03T07:19:29;98064.44;;;6.67;52.74
47374;BME280;33123;50.118;10.272;2023-03-03T07:21:57;98058.34;;;6.73;52.47
47374;BME280;33123;50.118;10.272;2023-03-03T07:24:27;98060.41;;;6.65;51.52
47374;BME280;33123;50.118;10.272;2023-03-03T07:26:56;98067.94;;;6.54;51.98
47374;BME280;33123;50.118;10.272;2023-03-03T07:29:26;98082.34;;;6.39;52.70
47374;BME280;33123;50.118;10.272;2023-03-03T07:31:57;98021.75;;;5.83;53.36
47374;BME280;33123;50.118;10.272;2023-03-03T07:34:30;98064.84;;;5.74;54.09
47374;BME280;33123;50.118;10.272;2023-03-03T07:37:03;98089.41;;;5.67;55.40
47374;BME280;33123;50.118;10.272;2023-03-03T07:39:35;98092.25;;;5.52;55.65
47374;BME280;33123;50.118;10.272;2023-03-03T07:42:23;98088.84;;;5.32;56.64
47374;BME280;33123;50.118;10.272;2023-03-03T07:44:54;98090.66;;;5.44;57.09
47374;BME280;33123;50.118;10.272;2023-03-03T07:47:50;98093.81;;;5.60;56.74
47374;BME280;33123;50.118;10.272;2023-03-03T07:50:19;98091.97;;;5.93;56.15
47374;BME280;33123;50.118;10.272;2023-03-03T07:52:51;98090.78;;;6.41;55.14
47374;BME280;33123;50.118;10.272;2023-03-03T07:55:33;98076.53;;;6.93;54.33
47374;BME280;33123;50.118;10.272;2023-03-03T07:58:15;98096.13;;;7.40;52.42
47374;BME280;33123;50.118;10.272;2023-03-03T08:03:55;98095.88;;;8.40;49.75
47374;BME280;33123;50.118;10.272;2023-03-03T08:06:46;98095.97;;;8.64;48.99
47374;BME280;33123;50.118;10.272;2023-03-03T08:09:36;98101.81;;;9.08;48.13
47374;BME280;33123;50.118;10.272;2023-03-03T08:12:30;98107.22;;;9.36;47.36
47374;BME280;33123;50.118;10.272;2023-03-03T08:15:13;98107.22;;;9.83;46.54
47374;BME280;33123;50.118;10.272;2023-03-03T08:17:42;98117.31;;;10.38;45.29
47374;BME280;33123;50.118;10.272;2023-03-03T08:20:42;98116.00;;;10.81;44.33
47374;BME280;33123;50.118;10.272;2023-03-03T08:23:10;98110.56;;;11.33;43.65
47374;BME280;33123;50.118;10.272;2023-03-03T08:25:37;98106.66;;;11.91;42.44
47374;BME280;33123;50.118;10.272;2023-03-03T08:28:05;98110.31;;;12.29;40.64
47374;BME280;33123;50.118;10.272;2023-03-03T08:30:32;98124.22;;;12.68;40.16
47374;BME280;33123;50.118;10.272;2023-03-03T08:32:58;98116.31;;;12.95;39.99
47374;BME280;33123;50.118;10.272;2023-03-03T08:35:25;98112.44;;;13.35;38.93
47374;BME280;33123;50.118;10.272;2023-03-03T08:37:53;98113.66;;;13.59;38.65
47374;BME280;33123;50.118;10.272;2023-03-03T08:40:20;98116.25;;;13.91;37.76
47374;BME280;33123;50.118;10.272;2023-03-03T08:42:47;98113.44;;;14.13;37.65
47374;BME280;33123;50.118;10.272;2023-03-03T08:45:13;98122.06;;;14.46;36.58
47374;BME280;33123;50.118;10.272;2023-03-03T08:47:41;98113.56;;;14.44;35.88
47374;BME280;33123;50.118;10.272;2023-03-03T08:50:09;98113.22;;;14.25;35.62
47374;BME280;33123;50.118;10.272;2023-03-03T08:52:36;98069.34;;;13.92;36.75
47374;BME280;33123;50.118;10.272;2023-03-03T08:55:05;98111.38;;;14.31;36.02
47374;BME280;33123;50.118;10.272;2023-03-03T08:57:31;98113.59;;;14.54;35.72
47374;BME280;33123;50.118;10.272;2023-03-03T08:59:58;98119.50;;;14.82;36.60
47374;BME280;33123;50.118;10.272;2023-03-03T09:02:32;98099.59;;;14.69;35.35
47374;BME280;33123;50.118;10.272;2023-03-03T09:04:58;98121.13;;;14.83;35.42
47374;BME280;33123;50.118;10.272;2023-03-03T09:07:25;98113.72;;;15.05;36.06
47374;BME280;33123;50.118;10.272;2023-03-03T09:09:52;98110.81;;;15.17;35.30
47374;BME280;33123;50.118;10.272;2023-03-03T09:12:24;98108.94;;;15.27;34.14
47374;BME280;33123;50.118;10.272;2023-03-03T09:14:55;98116.09;;;15.57;34.07
47374;BME280;33123;50.118;10.272;2023-03-03T09:17:24;98107.31;;;15.62;34.07
47374;BME280;33123;50.118;10.272;2023-03-03T09:19:54;98114.22;;;15.48;34.06
47374;BME280;33123;50.118;10.272;2023-03-03T09:22:47;98113.97;;;15.54;33.95
47374;BME280;33123;50.118;10.272;2023-03-03T09:25:22;98112.13;;;15.65;34.58
47374;BME280;33123;50.118;10.272;2023-03-03T09:27:54;98115.25;;;15.88;34.18
47374;BME280;33123;50.118;10.272;2023-03-03T09:30:38;98093.44;;;16.01;33.51
47374;BME280;33123;50.118;10.272;2023-03-03T09:33:22;98128.44;;;16.33;33.29
47374;BME280;33123;50.118;10.272;2023-03-03T09:35:51;98127.47;;;16.74;32.98
47374;BME280;33123;50.118;10.272;2023-03-03T09:38:29;98120.53;;;17.17;32.26
47374;BME280;33123;50.118;10.272;2023-03-03T09:44:17;98134.50;;;17.67;31.31
47374;BME280;33123;50.118;10.272;2023-03-03T09:46:59;98136.38;;;17.66;31.16
47374;BME280;33123;50.118;10.272;2023-03-03T09:49:34;98121.66;;;17.69;30.94
47374;BME280;33123;50.118;10.272;2023-03-03T09:52:25;98148.53;;;18.07;30.66
47374;BME280;33123;50.118;10.272;2023-03-03T09:55:07;98156.03;;;18.05;30.75
47374;BME280;33123;50.118;10.272;2023-03-03T09:57:49;98145.50;;;18.37;29.93
47374;BME280;33123;50.118;10.272;2023-03-03T10:00:31;98160.53;;;18.52;29.43
47374;BME280;33123;50.118;10.272;2023-03-03T10:03:26;98164.38;;;18.65;29.52
47374;BME280;33123;50.118;10.272;2023-03-03T10:06:02;98159.06;;;18.41;29.64
47374;BME280;33123;50.118;10.272;2023-03-03T10:08:44;98161.59;;;18.75;29.66
47374;BME280;33123;50.118;10.272;2023-03-03T10:11:21;98138.59;;;17.88;29.13
47374;BME280;33123;50.118;10.272;2023-03-03T10:13:59;98164.63;;;17.97;30.31
47374;BME280;33123;50.118;10.272;2023-03-03T10:16:52;98153.56;;;18.08;30.49
47374;BME280;33123;50.118;10.272;2023-03-03T10:19:32;98157.03;;;18.09;30.21
47374;BME280;33123;50.118;10.272;2023-03-03T10:22:12;98152.38;;;17.96;30.50
47374;BME280;33123;50.118;10.272;2023-03-03T10:24:48;98151.13;;;18.12;29.70
47374;BME280;33123;50.118;10.272;2023-03-03T10:27:34;98143.53;;;18.00;29.87
47374;BME280;33123;50.118;10.272;2023-03-03T10:30:10;98152.97;;;18.16;30.81
47374;BME280;33123;50.118;10.272;2023-03-03T10:32:45;98161.50;;;18.37;29.68
47374;BME280;33123;50.118;10.272;2023-03-03T10:35:24;98161.81;;;18.36;29.96
47374;BME280;33123;50.118;10.272;2023-03-03T10:38:13;98149.75;;;18.62;29.07
47374;BME280;33123;50.118;10.272;2023-03-03T10:40:47;98162.44;;;18.94;28.75
47374;BME280;33123;50.118;10.272;2023-03-03T10:43:29;98164.00;;;19.14;29.64
47374;BME280;33123;50.118;10.272;2023-03-03T10:46:14;98157.91;;;19.46;28.32
47374;BME280;33123;50.118;10.272;2023-03-03T10:48:58;98155.19;;;19.33;28.00
47374;BME280;33123;50.118;10.272;2023-03-03T10:51:33;98159.19;;;19.16;28.52
47374;BME280;33123;50.118;10.272;2023-03-03T10:54:13;98143.66;;;18.99;28.67
47374;BME280;33123;50.118;10.272;2023-03-03T10:56:50;98153.81;;;18.97;28.55
47374;BME280;33123;50.118;10.272;2023-03-03T10:59:34;98144.84;;;19.26;28.79
47374;BME280;33123;50.118;10.272;2023-03-03T11:02:11;98150.59;;;19.52;28.29
47374;BME280;33123;50.118;10.272;2023-03-03T11:04:49;98133.25;;;19.17;27.04
47374;BME280;33123;50.118;10.272;2023-03-03T11:07:26;98151.13;;;19.35;27.31
47374;BME280;33123;50.118;10.272;2023-03-03T11:10:07;98143.84;;;19.22;28.31
47374;BME280;33123;50.118;10.272;2023-03-03T11:12:49;98144.28;;;19.29;28.33
47374;BME280;33123;50.118;10.272;2023-03-03T11:15:35;98146.72;;;19.58;28.08
47374;BME280;33123;50.118;10.272;2023-03-03T11:21:20;98144.50;;;19.65;27.21
47374;BME280;33123;50.118;10.272;2023-03-03T11:23:54;98141.47;;;19.53;27.80
47374;BME280;33123;50.118;10.272;2023-03-03T11:26:33;98134.63;;;19.47;28.28
47374;BME280;33123;50.118;10.272;2023-03-03T11:29:25;98138.09;;;19.47;27.28
47374;BME280;33123;50.118;10.272;2023-03-03T11:31:56;98132.03;;;19.61;28.48
47374;BME280;33123;50.118;10.272;2023-03-03T11:34:43;98120.72;;;19.64;28.41
47374;BME280;33123;50.118;10.272;2023-03-03T11:37:20;98121.47;;;19.83;27.96
47374;BME280;33123;50.118;10.272;2023-03-03T11:39:48;98113.13;;;19.38;26.54
47374;BME280;33123;50.118;10.272;2023-03-03T11:42:24;98109.56;;;18.91;26.75
47374;BME280;33123;50.118;10.272;2023-03-03T11:44:54;98110.00;;;18.61;28.17
47374;BME280;33123;50.118;10.272;2023-03-03T11:47:24;98089.91;;;17.78;28.13
47374;BME280;33123;50.118;10.272;2023-03-03T11:49:55;98102.34;;;17.53;28.74
47374;BME280;33123;50.118;10.272;2023-03-03T11:52:33;98098.53;;;17.35;29.36
47374;BME280;33123;50.118;10.272;2023-03-03T11:55:07;98094.75;;;17.41;31.54
47374;BME280;33123;50.118;10.272;2023-03-03T11:57:39;98091.25;;;17.70;30.13
47374;BME280;33123;50.118;10.272;2023-03-03T12:00:19;98081.66;;;17.98;29.73
47374;BME280;33123;50.118;10.272;2023-03-03T12:03:07;98091.06;;;18.57;29.15
47374;BME280;33123;50.118;10.272;2023-03-03T12:05:50;98093.75;;;18.76;29.45
47374;BME280;33123;50.118;10.272;2023-03-03T12:08:35;98092.81;;;19.05;29.88
47374;BME280;33123;50.118;10.272;2023-03-03T12:11:08;98083.72;;;19.06;27.63
47374;BME280;33123;50.118;10.272;2023-03-03T12:13:48;98088.47;;;19.09;27.79
47374;BME280;33123;50.118;10.272;2023-03-03T12:16:23;98086.13;;;19.21;27.97
47374;BME280;33123;50.118;10.272;2023-03-03T12:18:58;98084.22;;;19.08;28.38
47374;BME280;33123;50.118;10.272;2023-03-03T12:21:51;98089.00;;;18.92;27.50
47374;BME280;33123;50.118;10.272;2023-03-03T12:24:32;98086.16;;;18.64;28.79
47374;BME280;33123;50.118;10.272;2023-03-03T12:27:10;98081.13;;;18.63;27.61
47374;BME280;33123;50.118;10.272;2023-03-03T12:29:41;98073.41;;;18.61;28.92
47374;BME280;33123;50.118;10.272;2023-03-03T12:32:22;98073.03;;;18.49;28.88
47374;BME280;33123;50.118;10.272;2023-03-03T12:34:57;98079.59;;;18.57;28.70
47374;BME280;33123;50.118;10.272;2023-03-03T12:37:38;98053.97;;;18.37;29.33
47374;BME280;33123;50.118;10.272;2023-03-03T12:40:16;98068.91;;;18.57;27.55
47374;BME280;33123;50.118;10.272;2023-03-03T12:46:37;98061.28;;;18.07;28.80
47374;BME280;33123;50.118;10.272;2023-03-03T12:49:06;98054.66;;;17.81;29.23
47374;BME280;33123;50.118;10.272;2023-03-03T12:51:40;98052.56;;;17.78;29.12
47374;BME280;33123;50.118;10.272;2023-03-03T12:54:30;98040.03;;;17.78;29.99
47374;BME280;33123;50.118;10.272;2023-03-03T12:57:08;98049.84;;;17.83;29.74
47374;BME280;33123;50.118;10.272;2023-03-03T12:59:44;98038.16;;;17.79;29.22
47374;BME280;33123;50.118;10.272;2023-03-03T13:02:31;98031.72;;;17.56;29.32
47374;BME280;33123;50.118;10.272;2023-03-03T13:05:06;98042.25;;;17.13;29.13
47374;BME280;33123;50.118;10.272;2023-03-03T13:07:40;98039.19;;;16.96;29.77
47374;BME280;33123;50.118;10.272;2023-03-03T13:10:12;98034.91;;;17.00;30.22
47374;BME280;33123;50.118;10.272;2023-03-03T13:12:57;98032.53;;;16.93;30.83
47374;BME280;33123;50.118;10.272;2023-03-03T13:15:27;98034.78;;;16.81;30.89
47374;BME280;33123;50.118;10.272;2023-03-03T13:18:09;98021.75;;;16.79;30.67
47374;BME280;33123;50.118;10.272;2023-03-03T13:20:44;98027.91;;;16.70;29.70
47374;BME280;33123;50.118;10.272;2023-03-03T13:23:21;98021.28;;;16.67;30.75
47374;BME280;33123;50.118;10.272;2023-03-03T13:25:57;98030.41;;;16.56;31.03
47374;BME280;33123;50.118;10.272;2023-03-03T13:28:32;98025.44;;;16.44;30.51
47374;BME280;33123;50.118;10.272;2023-03-03T13:31:03;98021.59;;;16.16;30.30
47374;BME280;33123;50.118;10.272;2023-03-03T13:33:34;98021.50;;;15.72;31.16
47374;BME280;33123;50.118;10.272;2023-03-03T13:36:03;98003.22;;;15.50;32.75
47374;BME280;33123;50.118;10.272;2023-03-03T13:38:32;98022.59;;;15.55;32.40
47374;BME280;33123;50.118;10.272;2023-03-03T13:41:06;97998.94;;;15.54;32.57
47374;BME280;33123;50.118;10.272;2023-03-03T13:43:43;98029.22;;;15.73;32.37
47374;BME280;33123;50.118;10.272;2023-03-03T13:46:15;98021.75;;;15.75;31.84
47374;BME280;33123;50.118;10.272;2023-03-03T13:49:00;98026.53;;;15.83;31.67
47374;BME280;33123;50.118;10.272;2023-03-03T13:51:36;98013.53;;;15.77;31.97
47374;BME280;33123;50.118;10.272;2023-03-03T13:54:14;98013.78;;;15.75;32.10
47374;BME280;33123;50.118;10.272;2023-03-03T13:56:58;98025.22;;;15.71;32.76